sensor_id;sensor_type;location;lat;lon;timestamp;P1;durP1;ratioP1;P2;durP2;ratioP2
60867;SDS011;46702;48.370;10.794;2023-02-23T00:00:14;18.75;;;10.55;;
60867;SDS011;46702;48.370;10.794;2023-02-23T00:02:47;21.67;;;11.50;;
60867;SDS011;46702;48.370;10.794;2023-02-23T00:05:14;19.20;;;10.43;;
60867;SDS011;46702;48.370;10.794;2023-02-23T00:07:42;16.48;;;10.55;;
60867;SDS011;46702;48.370;10.794;2023-02-23T00:10:13;18.58;;;10.50;;
60867;SDS011;46702;48.370;10.794;2023-02-23T00:12:40;15.35;;;10.20;;
60867;SDS011;46702;48.370;10.794;2023-02-23T00:15:06;20.30;;;11.60;;
60867;SDS011;46702;48.370;10.794;2023-02-23T00:17:33;18.85;;;10.05;;
60867;SDS011;46702;48.370;10.794;2023-02-23T00:20:01;18.23;;;10.20;;
60867;SDS011;46702;48.370;10.794;2023-02-23T00:22:32;16.63;;;10.70;;
60867;SDS011;46702;48.370;10.794;2023-02-23T00:24:58;17.00;;;10.30;;
60867;SDS011;46702;48.370;10.794;2023-02-23T00:27:24;17.52;;;10.77;;
60867;SDS011;46702;48.370;10.794;2023-02-23T00:29:50;17.27;;;10.77;;
60867;SDS011;46702;48.370;10.794;2023-02-23T00:32:16;16.95;;;11.00;;
60867;SDS011;46702;48.370;10.794;2023-02-23T00:34:45;21.98;;;11.00;;
60867;SDS011;46702;48.370;10.794;2023-02-23T00:37:15;19.95;;;10.23;;
60867;SDS011;46702;48.370;10.794;2023-02-23T00:39:42;21.00;;;11.18;;
60867;SDS011;46702;48.370;10.794;2023-02-23T00:42:07;20.58;;;11.10;;
60867;SDS011;46702;48.370;10.794;2023-02-23T00:44:34;21.25;;;12.65;;
60867;SDS011;46702;48.370;10.794;2023-02-23T00:47:05;20.20;;;10.43;;
60867;SDS011;46702;48.370;10.794;2023-02-23T00:49:31;20.20;;;11.70;;
60867;SDS011;46702;48.370;10.794;2023-02-23T00:51:57;16.50;;;11.00;;
60867;SDS011;46702;48.370;10.794;2023-02-23T00:54:23;19.02;;;10.93;;
60867;SDS011;46702;48.370;10.794;2023-02-23T00:56:49;15.70;;;9.25;;
60867;SDS011;46702;48.370;10.794;2023-02-23T00:59:16;16.08;;;9.60;;
60867;SDS011;46702;48.370;10.794;2023-02-23T01:01:43;15.43;;;9.35;;
60867;SDS011;46702;48.370;10.794;2023-02-23T01:04:09;16.45;;;10.32;;
60867;SDS011;46702;48.370;10.794;2023-02-23T01:06:36;18.52;;;10.38;;
60867;SDS011;46702;48.370;10.794;2023-02-23T01:09:06;15.82;;;9.80;;
60867;SDS011;46702;48.370;10.794;2023-02-23T01:11:37;16.92;;;10.25;;
60867;SDS011;46702;48.370;10.794;2023-02-23T01:14:05;22.33;;;11.02;;
60867;SDS011;46702;48.370;10.794;2023-02-23T01:16:31;19.05;;;9.40;;
60867;SDS011;46702;48.370;10.794;2023-02-23T01:19:03;18.73;;;10.00;;
60867;SDS011;46702;48.370;10.794;2023-02-23T01:21:30;16.88;;;10.43;;
60867;SDS011;46702;48.370;10.794;2023-02-23T01:23:58;19.55;;;10.52;;
60867;SDS011;46702;48.370;10.794;2023-02-23T01:26:25;21.73;;;10.75;;
60867;SDS011;46702;48.370;10.794;2023-02-23T01:28:53;17.90;;;9.27;;
60867;SDS011;46702;48.370;10.794;2023-02-23T01:31:25;17.10;;;10.27;;
60867;SDS011;46702;48.370;10.794;2023-02-23T01:33:52;15.38;;;9.43;;
60867;SDS011;46702;48.370;10.794;2023-02-23T01:36:19;17.85;;;9.57;;
60867;SDS011;46702;48.370;10.794;2023-02-23T01:38:45;17.35;;;9.30;;
60867;SDS011;46702;48.370;10.794;2023-02-23T01:41:10;17.45;;;9.85;;
60867;SDS011;46702;48.370;10.794;2023-02-23T01:43:53;19.05;;;10.00;;
60867;SDS011;46702;48.370;10.794;2023-02-23T01:46:19;16.70;;;8.95;;
60867;SDS011;46702;48.370;10.794;2023-02-23T01:48:44;19.77;;;10.25;;
60867;SDS011;46702;48.370;10.794;2023-02-23T01:51:16;11.80;;;8.65;;
60867;SDS011;46702;48.370;10.794;2023-02-23T01:53:47;18.42;;;9.20;;
60867;SDS011;46702;48.370;10.794;2023-02-23T01:56:35;15.82;;;9.63;;
60867;SDS011;46702;48.370;10.794;2023-02-23T01:59:10;18.45;;;10.70;;
60867;SDS011;46702;48.370;10.794;2023-02-23T02:01:39;18.30;;;10.00;;
60867;SDS011;46702;48.370;10.794;2023-02-23T02:04:07;16.23;;;10.35;;
60867;SDS011;46702;48.370;10.794;2023-02-23T02:06:40;17.80;;;10.18;;
60867;SDS011;46702;48.370;10.794;2023-02-23T02:09:10;19.13;;;10.18;;
60867;SDS011;46702;48.370;10.794;2023-02-23T02:11:42;17.98;;;9.32;;
60867;SDS011;46702;48.370;10.794;2023-02-23T02:19:43;17.05;;;10.30;;
60867;SDS011;46702;48.370;10.794;2023-02-23T02:40:03;17.83;;;9.93;;
60867;SDS011;46702;48.370;10.794;2023-02-23T02:45:20;19.98;;;10.93;;
60867;SDS011;46702;48.370;10.794;2023-02-23T02:48:02;13.73;;;8.75;;
60867;SDS011;46702;48.370;10.794;2023-02-23T02:50:54;12.00;;;8.23;;
60867;SDS011;46702;48.370;10.794;2023-02-23T02:53:30;16.60;;;9.20;;
60867;SDS011;46702;48.370;10.794;2023-02-23T02:56:08;19.52;;;9.73;;
60867;SDS011;46702;48.370;10.794;2023-02-23T02:58:38;14.52;;;8.50;;
60867;SDS011;46702;48.370;10.794;2023-02-23T03:01:08;12.85;;;8.18;;
60867;SDS011;46702;48.370;10.794;2023-02-23T03:03:58;15.13;;;8.45;;
60867;SDS011;46702;48.370;10.794;2023-02-23T03:13:06;15.60;;;9.02;;
60867;SDS011;46702;48.370;10.794;2023-02-23T03:16:38;20.02;;;9.90;;
60867;SDS011;46702;48.370;10.794;2023-02-23T03:22:46;14.88;;;8.90;;
60867;SDS011;46702;48.370;10.794;2023-02-23T03:28:49;14.70;;;9.75;;
60867;SDS011;46702;48.370;10.794;2023-02-23T03:31:49;14.30;;;8.40;;
60867;SDS011;46702;48.370;10.794;2023-02-23T03:38:03;15.30;;;8.43;;
60867;SDS011;46702;48.370;10.794;2023-02-23T03:40:59;12.82;;;8.30;;
60867;SDS011;46702;48.370;10.794;2023-02-23T03:43:46;14.35;;;9.43;;
60867;SDS011;46702;48.370;10.794;2023-02-23T03:46:34;15.05;;;9.10;;
60867;SDS011;46702;48.370;10.794;2023-02-23T03:49:20;15.35;;;8.85;;
60867;SDS011;46702;48.370;10.794;2023-02-23T03:52:08;14.77;;;9.27;;
60867;SDS011;46702;48.370;10.794;2023-02-23T03:55:00;16.63;;;8.90;;
60867;SDS011;46702;48.370;10.794;2023-02-23T03:57:49;14.55;;;8.40;;
60867;SDS011;46702;48.370;10.794;2023-02-23T04:00:38;16.73;;;9.32;;
60867;SDS011;46702;48.370;10.794;2023-02-23T04:03:28;13.55;;;8.98;;
60867;SDS011;46702;48.370;10.794;2023-02-23T04:06:16;15.35;;;9.35;;
60867;SDS011;46702;48.370;10.794;2023-02-23T04:09:04;16.38;;;9.68;;
60867;SDS011;46702;48.370;10.794;2023-02-23T04:12:09;15.07;;;8.88;;
60867;SDS011;46702;48.370;10.794;2023-02-23T04:17:42;18.48;;;9.93;;
60867;SDS011;46702;48.370;10.794;2023-02-23T04:20:09;15.48;;;7.97;;
60867;SDS011;46702;48.370;10.794;2023-02-23T04:22:41;16.33;;;8.50;;
60867;SDS011;46702;48.370;10.794;2023-02-23T04:25:10;12.95;;;7.78;;
60867;SDS011;46702;48.370;10.794;2023-02-23T04:27:38;18.02;;;9.32;;
60867;SDS011;46702;48.370;10.794;2023-02-23T04:30:06;19.23;;;8.27;;
60867;SDS011;46702;48.370;10.794;2023-02-23T04:32:35;16.75;;;9.45;;
60867;SDS011;46702;48.370;10.794;2023-02-23T04:35:01;13.55;;;8.73;;
60867;SDS011;46702;48.370;10.794;2023-02-23T04:37:26;15.32;;;8.38;;
60867;SDS011;46702;48.370;10.794;2023-02-23T04:39:52;12.77;;;8.50;;
60867;SDS011;46702;48.370;10.794;2023-02-23T04:42:20;14.27;;;8.38;;
60867;SDS011;46702;48.370;10.794;2023-02-23T04:44:46;17.38;;;8.23;;
60867;SDS011;46702;48.370;10.794;2023-02-23T04:47:15;18.75;;;9.15;;
60867;SDS011;46702;48.370;10.794;2023-02-23T04:49:41;14.50;;;9.05;;
60867;SDS011;46702;48.370;10.794;2023-02-23T04:52:10;14.20;;;8.93;;
60867;SDS011;46702;48.370;10.794;2023-02-23T04:54:37;17.73;;;10.00;;
60867;SDS011;46702;48.370;10.794;2023-02-23T04:57:07;20.20;;;10.77;;
60867;SDS011;46702;48.370;10.794;2023-02-23T04:59:33;17.10;;;9.93;;
60867;SDS011;46702;48.370;10.794;2023-02-23T05:01:59;14.55;;;10.10;;
60867;SDS011;46702;48.370;10.794;2023-02-23T05:04:25;20.15;;;10.13;;
60867;SDS011;46702;48.370;10.794;2023-02-23T05:06:51;18.42;;;9.73;;
60867;SDS011;46702;48.370;10.794;2023-02-23T05:09:17;15.40;;;9.80;;
60867;SDS011;46702;48.370;10.794;2023-02-23T05:11:48;21.10;;;10.70;;
60867;SDS011;46702;48.370;10.794;2023-02-23T05:16:39;17.90;;;10.10;;
60867;SDS011;46702;48.370;10.794;2023-02-23T05:19:06;22.63;;;10.60;;
60867;SDS011;46702;48.370;10.794;2023-02-23T05:21:32;19.17;;;10.15;;
60867;SDS011;46702;48.370;10.794;2023-02-23T05:23:57;19.35;;;10.32;;
60867;SDS011;46702;48.370;10.794;2023-02-23T05:28:52;19.15;;;9.43;;
60867;SDS011;46702;48.370;10.794;2023-02-23T05:31:19;20.17;;;9.75;;
60867;SDS011;46702;48.370;10.794;2023-02-23T05:33:50;17.65;;;10.85;;
60867;SDS011;46702;48.370;10.794;2023-02-23T05:36:17;18.73;;;11.07;;
60867;SDS011;46702;48.370;10.794;2023-02-23T05:38:45;19.17;;;10.10;;
60867;SDS011;46702;48.370;10.794;2023-02-23T05:41:12;18.08;;;10.88;;
60867;SDS011;46702;48.370;10.794;2023-02-23T05:43:39;26.10;;;11.23;;
60867;SDS011;46702;48.370;10.794;2023-02-23T05:46:09;20.38;;;10.77;;
60867;SDS011;46702;48.370;10.794;2023-02-23T05:48:38;20.10;;;10.18;;
60867;SDS011;46702;48.370;10.794;2023-02-23T05:51:05;17.77;;;9.98;;
60867;SDS011;46702;48.370;10.794;2023-02-23T05:53:33;16.80;;;10.15;;
60867;SDS011;46702;48.370;10.794;2023-02-23T05:56:00;18.73;;;10.77;;
60867;SDS011;46702;48.370;10.794;2023-02-23T05:58:27;16.55;;;9.70;;
60867;SDS011;46702;48.370;10.794;2023-02-23T06:00:53;16.88;;;10.18;;
60867;SDS011;46702;48.370;10.794;2023-02-23T06:03:22;15.55;;;9.25;;
60867;SDS011;46702;48.370;10.794;2023-02-23T06:05:49;16.25;;;9.48;;
60867;SDS011;46702;48.370;10.794;2023-02-23T06:08:16;17.52;;;11.40;;
60867;SDS011;46702;48.370;10.794;2023-02-23T06:10:58;20.10;;;10.93;;
60867;SDS011;46702;48.370;10.794;2023-02-23T06:13:29;23.45;;;12.40;;
60867;SDS011;46702;48.370;10.794;2023-02-23T06:15:56;18.73;;;10.93;;
60867;SDS011;46702;48.370;10.794;2023-02-23T06:18:23;20.45;;;11.30;;
60867;SDS011;46702;48.370;10.794;2023-02-23T06:20:49;22.63;;;12.02;;
60867;SDS011;46702;48.370;10.794;2023-02-23T06:23:15;21.05;;;10.63;;
60867;SDS011;46702;48.370;10.794;2023-02-23T06:25:44;18.85;;;10.50;;
60867;SDS011;46702;48.370;10.794;2023-02-23T06:28:11;22.23;;;12.30;;
60867;SDS011;46702;48.370;10.794;2023-02-23T06:30:37;23.50;;;12.25;;
60867;SDS011;46702;48.370;10.794;2023-02-23T06:33:04;19.48;;;10.98;;
60867;SDS011;46702;48.370;10.794;2023-02-23T06:35:31;18.27;;;10.38;;
60867;SDS011;46702;48.370;10.794;2023-02-23T06:37:59;19.55;;;10.85;;
60867;SDS011;46702;48.370;10.794;2023-02-23T06:40:25;21.25;;;10.60;;
60867;SDS011;46702;48.370;10.794;2023-02-23T06:42:51;15.48;;;9.70;;
60867;SDS011;46702;48.370;10.794;2023-02-23T06:45:17;16.33;;;9.90;;
60867;SDS011;46702;48.370;10.794;2023-02-23T06:47:44;17.45;;;10.57;;
60867;SDS011;46702;48.370;10.794;2023-02-23T06:50:13;17.75;;;10.45;;
60867;SDS011;46702;48.370;10.794;2023-02-23T06:52:39;18.25;;;10.43;;
60867;SDS011;46702;48.370;10.794;2023-02-23T06:55:08;23.60;;;10.55;;
60867;SDS011;46702;48.370;10.794;2023-02-23T06:57:43;16.90;;;10.68;;
60867;SDS011;46702;48.370;10.794;2023-02-23T07:00:28;17.73;;;10.73;;
60867;SDS011;46702;48.370;10.794;2023-02-23T07:02:55;20.00;;;11.18;;
60867;SDS011;46702;48.370;10.794;2023-02-23T07:05:24;16.90;;;10.75;;
60867;SDS011;46702;48.370;10.794;2023-02-23T07:07:50;19.23;;;11.13;;
60867;SDS011;46702;48.370;10.794;2023-02-23T07:10:19;22.35;;;11.57;;
60867;SDS011;46702;48.370;10.794;2023-02-23T07:12:45;19.92;;;11.80;;
60867;SDS011;46702;48.370;10.794;2023-02-23T07:15:11;20.67;;;10.73;;
60867;SDS011;46702;48.370;10.794;2023-02-23T07:17:36;20.20;;;11.38;;
60867;SDS011;46702;48.370;10.794;2023-02-23T07:20:03;21.10;;;10.68;;
60867;SDS011;46702;48.370;10.794;2023-02-23T07:22:29;18.83;;;10.00;;
60867;SDS011;46702;48.370;10.794;2023-02-23T07:24:55;19.67;;;11.00;;
60867;SDS011;46702;48.370;10.794;2023-02-23T07:27:24;19.40;;;11.80;;
60867;SDS011;46702;48.370;10.794;2023-02-23T07:29:51;19.00;;;11.50;;
60867;SDS011;46702;48.370;10.794;2023-02-23T07:32:21;20.42;;;11.48;;
60867;SDS011;46702;48.370;10.794;2023-02-23T07:34:47;18.85;;;11.05;;
60867;SDS011;46702;48.370;10.794;2023-02-23T07:37:13;18.27;;;11.45;;
60867;SDS011;46702;48.370;10.794;2023-02-23T07:39:41;21.88;;;11.93;;
60867;SDS011;46702;48.370;10.794;2023-02-23T07:42:08;23.63;;;12.52;;
60867;SDS011;46702;48.370;10.794;2023-02-23T07:44:33;23.20;;;13.35;;
60867;SDS011;46702;48.370;10.794;2023-02-23T07:47:00;24.90;;;12.82;;
60867;SDS011;46702;48.370;10.794;2023-02-23T07:49:26;21.35;;;12.40;;
60867;SDS011;46702;48.370;10.794;2023-02-23T07:51:52;24.40;;;11.63;;
60867;SDS011;46702;48.370;10.794;2023-02-23T07:54:17;24.85;;;12.50;;
60867;SDS011;46702;48.370;10.794;2023-02-23T07:56:43;20.02;;;12.93;;
60867;SDS011;46702;48.370;10.794;2023-02-23T07:59:11;22.75;;;13.55;;
60867;SDS011;46702;48.370;10.794;2023-02-23T08:01:40;23.83;;;13.32;;
60867;SDS011;46702;48.370;10.794;2023-02-23T08:04:06;25.50;;;14.38;;
60867;SDS011;46702;48.370;10.794;2023-02-23T08:06:35;25.42;;;13.57;;
60867;SDS011;46702;48.370;10.794;2023-02-23T08:09:02;26.77;;;13.90;;
60867;SDS011;46702;48.370;10.794;2023-02-23T08:11:31;26.90;;;14.73;;
60867;SDS011;46702;48.370;10.794;2023-02-23T08:13:58;29.85;;;15.43;;
60867;SDS011;46702;48.370;10.794;2023-02-23T08:16:28;29.63;;;13.82;;
60867;SDS011;46702;48.370;10.794;2023-02-23T08:18:56;22.88;;;11.98;;
60867;SDS011;46702;48.370;10.794;2023-02-23T08:21:22;25.80;;;14.15;;
60867;SDS011;46702;48.370;10.794;2023-02-23T08:23:49;22.23;;;12.45;;
60867;SDS011;46702;48.370;10.794;2023-02-23T08:26:15;26.17;;;13.93;;
60867;SDS011;46702;48.370;10.794;2023-02-23T08:28:41;29.77;;;14.57;;
60867;SDS011;46702;48.370;10.794;2023-02-23T08:33:36;25.00;;;13.10;;
60867;SDS011;46702;48.370;10.794;2023-02-23T08:36:03;27.08;;;13.73;;
60867;SDS011;46702;48.370;10.794;2023-02-23T08:38:30;25.83;;;14.45;;
60867;SDS011;46702;48.370;10.794;2023-02-23T08:40:58;25.38;;;14.10;;
60867;SDS011;46702;48.370;10.794;2023-02-23T08:43:25;29.45;;;15.48;;
60867;SDS011;46702;48.370;10.794;2023-02-23T08:45:51;27.80;;;14.23;;
60867;SDS011;46702;48.370;10.794;2023-02-23T08:48:20;23.65;;;13.75;;
60867;SDS011;46702;48.370;10.794;2023-02-23T08:50:47;27.80;;;14.32;;
60867;SDS011;46702;48.370;10.794;2023-02-23T08:53:14;27.02;;;14.65;;
60867;SDS011;46702;48.370;10.794;2023-02-23T08:55:46;32.42;;;15.52;;
60867;SDS011;46702;48.370;10.794;2023-02-23T08:58:12;27.25;;;13.60;;
60867;SDS011;46702;48.370;10.794;2023-02-23T09:03:06;22.70;;;11.77;;
60867;SDS011;46702;48.370;10.794;2023-02-23T09:05:32;26.85;;;13.70;;
60867;SDS011;46702;48.370;10.794;2023-02-23T09:08:01;29.70;;;13.57;;
60867;SDS011;46702;48.370;10.794;2023-02-23T09:10:30;24.70;;;13.85;;
60867;SDS011;46702;48.370;10.794;2023-02-23T09:12:59;29.05;;;13.50;;
60867;SDS011;46702;48.370;10.794;2023-02-23T09:15:25;24.58;;;12.43;;
60867;SDS011;46702;48.370;10.794;2023-02-23T09:17:52;22.35;;;13.32;;
60867;SDS011;46702;48.370;10.794;2023-02-23T09:20:18;25.45;;;10.77;;
60867;SDS011;46702;48.370;10.794;2023-02-23T09:22:44;15.30;;;8.70;;
60867;SDS011;46702;48.370;10.794;2023-02-23T09:25:17;21.42;;;11.60;;
60867;SDS011;46702;48.370;10.794;2023-02-23T09:27:49;16.17;;;9.32;;
60867;SDS011;46702;48.370;10.794;2023-02-23T09:30:19;22.95;;;12.38;;
60867;SDS011;46702;48.370;10.794;2023-02-23T09:32:54;22.60;;;11.60;;
60867;SDS011;46702;48.370;10.794;2023-02-23T09:35:23;17.27;;;9.15;;
60867;SDS011;46702;48.370;10.794;2023-02-23T09:37:50;12.00;;;6.97;;
60867;SDS011;46702;48.370;10.794;2023-02-23T09:40:23;15.77;;;9.02;;
60867;SDS011;46702;48.370;10.794;2023-02-23T09:46:00;11.50;;;6.38;;
60867;SDS011;46702;48.370;10.794;2023-02-23T09:48:40;13.35;;;8.25;;
60867;SDS011;46702;48.370;10.794;2023-02-23T09:51:16;21.10;;;10.93;;
60867;SDS011;46702;48.370;10.794;2023-02-23T09:53:47;22.20;;;11.45;;
60867;SDS011;46702;48.370;10.794;2023-02-23T09:59:00;16.83;;;9.10;;
60867;SDS011;46702;48.370;10.794;2023-02-23T10:07:06;21.40;;;10.88;;
60867;SDS011;46702;48.370;10.794;2023-02-23T10:09:54;17.77;;;10.85;;
60867;SDS011;46702;48.370;10.794;2023-02-23T10:15:31;16.13;;;8.38;;
60867;SDS011;46702;48.370;10.794;2023-02-23T10:21:01;22.33;;;7.90;;
60867;SDS011;46702;48.370;10.794;2023-02-23T10:26:15;12.93;;;7.43;;
60867;SDS011;46702;48.370;10.794;2023-02-23T10:28:43;13.18;;;7.15;;
60867;SDS011;46702;48.370;10.794;2023-02-23T10:31:53;9.57;;;7.13;;
60867;SDS011;46702;48.370;10.794;2023-02-23T10:34:09;11.52;;;7.25;;
60867;SDS011;46702;48.370;10.794;2023-02-23T10:36:43;17.23;;;8.65;;
60867;SDS011;46702;48.370;10.794;2023-02-23T10:39:17;12.70;;;7.88;;
60867;SDS011;46702;48.370;10.794;2023-02-23T10:41:43;11.98;;;6.75;;
60867;SDS011;46702;48.370;10.794;2023-02-23T10:44:17;14.45;;;7.03;;
60867;SDS011;46702;48.370;10.794;2023-02-23T10:46:48;17.48;;;9.82;;
60867;SDS011;46702;48.370;10.794;2023-02-23T10:49:23;12.15;;;7.82;;
60867;SDS011;46702;48.370;10.794;2023-02-23T10:52:01;14.13;;;8.02;;
60867;SDS011;46702;48.370;10.794;2023-02-23T10:57:10;14.68;;;8.50;;
60867;SDS011;46702;48.370;10.794;2023-02-23T11:02:50;13.98;;;7.05;;
60867;SDS011;46702;48.370;10.794;2023-02-23T11:05:34;15.48;;;8.70;;
60867;SDS011;46702;48.370;10.794;2023-02-23T11:10:55;14.35;;;9.02;;
60867;SDS011;46702;48.370;10.794;2023-02-23T11:13:43;14.45;;;7.18;;
60867;SDS011;46702;48.370;10.794;2023-02-23T11:18:51;15.20;;;8.07;;
60867;SDS011;46702;48.370;10.794;2023-02-23T11:21:21;11.00;;;6.60;;
60867;SDS011;46702;48.370;10.794;2023-02-23T11:23:54;12.10;;;6.82;;
60867;SDS011;46702;48.370;10.794;2023-02-23T11:26:24;12.57;;;7.57;;
60867;SDS011;46702;48.370;10.794;2023-02-23T11:29:02;11.90;;;5.60;;
60867;SDS011;46702;48.370;10.794;2023-02-23T11:31:36;10.75;;;6.53;;
60867;SDS011;46702;48.370;10.794;2023-02-23T11:34:04;10.32;;;6.75;;
60867;SDS011;46702;48.370;10.794;2023-02-23T11:36:35;12.23;;;6.30;;
60867;SDS011;46702;48.370;10.794;2023-02-23T11:39:04;12.82;;;5.80;;
60867;SDS011;46702;48.370;10.794;2023-02-23T11:41:32;15.27;;;6.38;;
60867;SDS011;46702;48.370;10.794;2023-02-23T11:43:59;11.50;;;5.47;;
60867;SDS011;46702;48.370;10.794;2023-02-23T11:46:27;9.35;;;5.80;;
60867;SDS011;46702;48.370;10.794;2023-02-23T11:49:03;8.48;;;5.93;;
60867;SDS011;46702;48.370;10.794;2023-02-23T11:51:40;9.80;;;5.28;;
60867;SDS011;46702;48.370;10.794;2023-02-23T11:54:32;9.55;;;5.35;;
60867;SDS011;46702;48.370;10.794;2023-02-23T11:56:58;10.23;;;4.95;;
60867;SDS011;46702;48.370;10.794;2023-02-23T11:59:32;11.00;;;5.65;;
60867;SDS011;46702;48.370;10.794;2023-02-23T12:02:05;12.23;;;6.07;;
60867;SDS011;46702;48.370;10.794;2023-02-23T12:04:43;10.02;;;4.95;;
60867;SDS011;46702;48.370;10.794;2023-02-23T12:09:51;7.65;;;5.00;;
60867;SDS011;46702;48.370;10.794;2023-02-23T12:12:23;11.43;;;5.38;;
60867;SDS011;46702;48.370;10.794;2023-02-23T12:14:57;8.00;;;4.32;;
60867;SDS011;46702;48.370;10.794;2023-02-23T12:17:32;8.02;;;5.47;;
60867;SDS011;46702;48.370;10.794;2023-02-23T12:20:03;10.80;;;5.55;;
60867;SDS011;46702;48.370;10.794;2023-02-23T12:22:47;7.30;;;4.82;;
60867;SDS011;46702;48.370;10.794;2023-02-23T12:25:26;11.73;;;5.90;;
60867;SDS011;46702;48.370;10.794;2023-02-23T12:28:36;10.00;;;6.20;;
60867;SDS011;46702;48.370;10.794;2023-02-23T12:31:18;5.65;;;3.90;;
60867;SDS011;46702;48.370;10.794;2023-02-23T12:33:59;8.75;;;4.50;;
60867;SDS011;46702;48.370;10.794;2023-02-23T12:36:35;12.05;;;5.75;;
60867;SDS011;46702;48.370;10.794;2023-02-23T12:39:07;9.73;;;5.50;;
60867;SDS011;46702;48.370;10.794;2023-02-23T12:45:02;8.80;;;4.88;;
60867;SDS011;46702;48.370;10.794;2023-02-23T12:50:31;9.50;;;4.15;;
60867;SDS011;46702;48.370;10.794;2023-02-23T12:56:13;8.68;;;4.85;;
60867;SDS011;46702;48.370;10.794;2023-02-23T13:06:56;7.65;;;4.60;;
60867;SDS011;46702;48.370;10.794;2023-02-23T13:15:02;5.10;;;3.67;;
60867;SDS011;46702;48.370;10.794;2023-02-23T13:17:50;7.30;;;3.88;;
60867;SDS011;46702;48.370;10.794;2023-02-23T13:20:37;5.20;;;3.38;;
60867;SDS011;46702;48.370;10.794;2023-02-23T13:31:18;6.30;;;3.70;;
60867;SDS011;46702;48.370;10.794;2023-02-23T13:33:45;10.63;;;5.18;;
60867;SDS011;46702;48.370;10.794;2023-02-23T13:36:11;7.03;;;4.40;;
60867;SDS011;46702;48.370;10.794;2023-02-23T13:38:45;7.80;;;4.82;;
60867;SDS011;46702;48.370;10.794;2023-02-23T13:41:44;8.15;;;4.60;;
60867;SDS011;46702;48.370;10.794;2023-02-23T13:44:28;10.27;;;5.07;;
60867;SDS011;46702;48.370;10.794;2023-02-23T13:50:28;6.38;;;4.05;;
60867;SDS011;46702;48.370;10.794;2023-02-23T13:53:04;8.45;;;4.22;;
60867;SDS011;46702;48.370;10.794;2023-02-23T13:55:32;7.85;;;4.40;;
60867;SDS011;46702;48.370;10.794;2023-02-23T14:00:41;6.97;;;4.00;;
60867;SDS011;46702;48.370;10.794;2023-02-23T14:03:19;5.57;;;4.03;;
60867;SDS011;46702;48.370;10.794;2023-02-23T14:05:51;8.13;;;4.22;;
60867;SDS011;46702;48.370;10.794;2023-02-23T14:08:29;7.97;;;4.40;;
60867;SDS011;46702;48.370;10.794;2023-02-23T14:11:01;7.40;;;4.80;;
60867;SDS011;46702;48.370;10.794;2023-02-23T14:13:32;10.32;;;4.63;;
60867;SDS011;46702;48.370;10.794;2023-02-23T14:16:09;7.57;;;4.15;;
60867;SDS011;46702;48.370;10.794;2023-02-23T14:24:18;9.88;;;4.75;;
60867;SDS011;46702;48.370;10.794;2023-02-23T14:30:19;6.90;;;4.55;;
60867;SDS011;46702;48.370;10.794;2023-02-23T14:32:39;8.43;;;4.05;;
60867;SDS011;46702;48.370;10.794;2023-02-23T14:38:42;9.68;;;5.38;;
60867;SDS011;46702;48.370;10.794;2023-02-23T14:40:53;7.57;;;4.55;;
60867;SDS011;46702;48.370;10.794;2023-02-23T14:43:41;9.48;;;4.53;;
60867;SDS011;46702;48.370;10.794;2023-02-23T14:46:13;6.40;;;4.38;;
60867;SDS011;46702;48.370;10.794;2023-02-23T14:48:44;7.80;;;4.18;;
60867;SDS011;46702;48.370;10.794;2023-02-23T14:51:24;8.15;;;4.78;;
60867;SDS011;46702;48.370;10.794;2023-02-23T14:53:58;6.28;;;3.90;;
60867;SDS011;46702;48.370;10.794;2023-02-23T14:56:24;7.03;;;3.28;;
60867;SDS011;46702;48.370;10.794;2023-02-23T14:58:51;5.03;;;3.38;;
60867;SDS011;46702;48.370;10.794;2023-02-23T15:01:33;7.10;;;3.78;;
60867;SDS011;46702;48.370;10.794;2023-02-23T15:04:10;5.32;;;3.53;;
60867;SDS011;46702;48.370;10.794;2023-02-23T15:06:59;5.18;;;3.20;;
60867;SDS011;46702;48.370;10.794;2023-02-23T15:09:37;4.95;;;3.20;;
60867;SDS011;46702;48.370;10.794;2023-02-23T15:12:17;6.88;;;3.00;;
60867;SDS011;46702;48.370;10.794;2023-02-23T15:14:46;4.60;;;3.17;;
60867;SDS011;46702;48.370;10.794;2023-02-23T15:17:18;6.70;;;3.40;;
60867;SDS011;46702;48.370;10.794;2023-02-23T15:19:49;3.95;;;2.85;;
60867;SDS011;46702;48.370;10.794;2023-02-23T15:22:27;3.65;;;2.40;;
60867;SDS011;46702;48.370;10.794;2023-02-23T15:24:58;3.20;;;2.90;;
60867;SDS011;46702;48.370;10.794;2023-02-23T15:27:44;4.32;;;2.50;;
60867;SDS011;46702;48.370;10.794;2023-02-23T15:33:03;3.28;;;2.25;;
60867;SDS011;46702;48.370;10.794;2023-02-23T15:35:35;3.13;;;2.30;;
60867;SDS011;46702;48.370;10.794;2023-02-23T15:38:10;3.38;;;2.38;;
60867;SDS011;46702;48.370;10.794;2023-02-23T15:40:42;3.58;;;2.13;;
60867;SDS011;46702;48.370;10.794;2023-02-23T15:43:08;4.05;;;2.58;;
60867;SDS011;46702;48.370;10.794;2023-02-23T15:45:39;3.03;;;2.58;;
60867;SDS011;46702;48.370;10.794;2023-02-23T15:48:20;4.10;;;2.53;;
60867;SDS011;46702;48.370;10.794;2023-02-23T15:50:49;4.68;;;2.75;;
60867;SDS011;46702;48.370;10.794;2023-02-23T15:53:29;5.13;;;2.50;;
60867;SDS011;46702;48.370;10.794;2023-02-23T15:56:03;5.60;;;2.55;;
60867;SDS011;46702;48.370;10.794;2023-02-23T15:58:39;3.88;;;2.63;;
60867;SDS011;46702;48.370;10.794;2023-02-23T16:01:22;4.03;;;2.58;;
60867;SDS011;46702;48.370;10.794;2023-02-23T16:06:35;4.55;;;3.25;;
60867;SDS011;46702;48.370;10.794;2023-02-23T16:12:09;9.75;;;3.25;;
60867;SDS011;46702;48.370;10.794;2023-02-23T16:14:41;6.10;;;2.83;;
60867;SDS011;46702;48.370;10.794;2023-02-23T16:19:50;6.10;;;3.55;;
60867;SDS011;46702;48.370;10.794;2023-02-23T16:22:19;6.00;;;3.33;;
60867;SDS011;46702;48.370;10.794;2023-02-23T16:24:52;5.07;;;3.35;;
60867;SDS011;46702;48.370;10.794;2023-02-23T16:27:25;4.43;;;3.08;;
60867;SDS011;46702;48.370;10.794;2023-02-23T16:29:59;5.18;;;3.15;;
60867;SDS011;46702;48.370;10.794;2023-02-23T16:32:48;6.18;;;3.47;;
60867;SDS011;46702;48.370;10.794;2023-02-23T16:35:42;6.47;;;3.42;;
60867;SDS011;46702;48.370;10.794;2023-02-23T16:38:11;6.78;;;3.03;;
60867;SDS011;46702;48.370;10.794;2023-02-23T16:40:53;6.03;;;3.22;;
60867;SDS011;46702;48.370;10.794;2023-02-23T16:43:19;6.10;;;2.80;;
60867;SDS011;46702;48.370;10.794;2023-02-23T16:45:45;5.15;;;3.47;;
60867;SDS011;46702;48.370;10.794;2023-02-23T16:48:12;4.70;;;3.10;;
60867;SDS011;46702;48.370;10.794;2023-02-23T16:50:39;4.15;;;3.17;;
60867;SDS011;46702;48.370;10.794;2023-02-23T16:53:06;6.93;;;3.33;;
60867;SDS011;46702;48.370;10.794;2023-02-23T16:55:40;5.60;;;2.92;;
60867;SDS011;46702;48.370;10.794;2023-02-23T16:58:20;4.70;;;3.08;;
60867;SDS011;46702;48.370;10.794;2023-02-23T17:00:51;9.13;;;4.07;;
60867;SDS011;46702;48.370;10.794;2023-02-23T17:03:24;6.57;;;4.20;;
60867;SDS011;46702;48.370;10.794;2023-02-23T17:05:52;22.70;;;14.52;;
60867;SDS011;46702;48.370;10.794;2023-02-23T17:08:21;16.08;;;8.25;;
60867;SDS011;46702;48.370;10.794;2023-02-23T17:11:02;12.02;;;5.03;;
60867;SDS011;46702;48.370;10.794;2023-02-23T17:13:29;13.73;;;5.18;;
60867;SDS011;46702;48.370;10.794;2023-02-23T17:16:00;9.23;;;5.40;;